Time;durP1;ratioP1;P1;durP2;ratioP2;P2;SDS_P1;SDS_P2;PMS_P1;PMS_P2;Temp;Humidity;BMP_temperature;BMP_pressure;BME280_temperature;BME280_humidity;BME280_pressure;Samples;Min_cycle;Max_cycle;Signal;HPM_P1;HPM_P2
2022/03/29 00:01:25;;;;;;;18.85;13.90;;;12.50;33.00;;;;;;6146225;23;20026;-80
2022/03/29 00:03:52;;;;;;;15.65;12.40;;;12.50;33.50;;;;;;6122674;23;20033;-81
2022/03/29 00:06:19;;;;;;;19.02;13.80;;;12.40;33.30;;;;;;6121338;23;20529;-78
2022/03/29 00:08:46;;;;;;;21.77;12.82;;;12.40;33.30;;;;;;6121136;23;20077;-79
2022/03/29 00:11:13;;;;;;;20.23;13.80;;;12.40;33.00;;;;;;6122192;23;20026;-79
2022/03/29 00:13:40;;;;;;;20.35;13.38;;;12.40;33.00;;;;;;6124789;23;20022;-80
2022/03/29 00:16:07;;;;;;;16.33;12.07;;;12.40;33.00;;;;;;6122220;23;20033;-80
2022/03/29 00:18:34;;;;;;;18.67;13.82;;;12.50;32.50;;;;;;6122730;23;20386;-81
2022/03/29 00:21:01;;;;;;;20.23;14.38;;;12.60;32.40;;;;;;6121337;23;20383;-80
2022/03/29 00:23:28;;;;;;;17.95;14.45;;;12.70;32.30;;;;;;6122000;23;20388;-81
2022/03/29 00:25:55;;;;;;;19.60;14.95;;;12.70;33.00;;;;;;6123710;23;20411;-80
2022/03/29 00:28:22;;;;;;;19.35;14.43;;;12.60;33.10;;;;;;6122048;23;20376;-78
2022/03/29 00:30:49;;;;;;;20.42;14.50;;;12.60;32.90;;;;;;6122093;23;20383;-80
2022/03/29 00:33:16;;;;;;;19.92;15.02;;;12.50;32.90;;;;;;6120733;23;20827;-80
2022/03/29 00:35:43;;;;;;;20.03;14.50;;;12.50;33.10;;;;;;6123651;23;20501;-80
2022/03/29 00:38:10;;;;;;;19.30;15.13;;;12.60;32.80;;;;;;6121285;23;20719;-79
2022/03/29 00:40:37;;;;;;;20.08;15.00;;;12.60;33.00;;;;;;6121806;23;20390;-80
2022/03/29 00:43:05;;;;;;;17.17;14.25;;;12.60;33.00;;;;;;6121175;23;20860;-80
2022/03/29 00:45:32;;;;;;;18.90;14.40;;;12.60;33.00;;;;;;6122828;23;20389;-80
2022/03/29 00:47:59;;;;;;;16.92;13.48;;;12.60;32.70;;;;;;6123515;23;20450;-80
2022/03/29 00:50:26;;;;;;;19.17;14.30;;;12.60;32.90;;;;;;6121877;23;20976;-80
2022/03/29 00:52:52;;;;;;;19.70;14.85;;;12.60;32.70;;;;;;6122785;23;20398;-79
2022/03/29 00:55:19;;;;;;;20.40;14.48;;;12.60;32.70;;;;;;6121101;23;20395;-79
2022/03/29 00:57:46;;;;;;;20.20;14.50;;;12.60;32.70;;;;;;6122177;23;20411;-80
2022/03/29 01:00:15;;;;;;;21.07;14.53;;;12.60;32.80;;;;;;6123309;23;20400;-79
2022/03/29 01:02:43;;;;;;;17.90;14.52;;;12.60;32.80;;;;;;6123448;23;20394;-80
2022/03/29 01:05:11;;;;;;;19.20;14.73;;;12.70;32.40;;;;;;6120922;23;20471;-80
2022/03/29 01:07:38;;;;;;;17.48;14.52;;;12.70;32.30;;;;;;6122757;23;20391;-80
2022/03/29 01:10:06;;;;;;;18.13;14.35;;;12.80;32.30;;;;;;6146274;23;20411;-80
2022/03/29 01:12:34;;;;;;;17.20;13.90;;;12.80;32.40;;;;;;6121998;23;20855;-78
2022/03/29 01:15:04;;;;;;;20.83;14.13;;;12.80;32.30;;;;;;6122650;23;20501;-81
2022/03/29 01:17:42;;;;;;;18.35;14.27;;;12.80;32.20;;;;;;6145393;23;20380;-81
2022/03/29 01:20:20;;;;;;;18.17;14.75;;;12.70;32.60;;;;;;6122173;23;20681;-80
2022/03/29 01:22:51;;;;;;;18.67;14.45;;;12.70;32.40;;;;;;6121391;23;20379;-80
2022/03/29 01:25:28;;;;;;;20.07;15.23;;;12.70;32.70;;;;;;6122739;23;20928;-80
2022/03/29 01:27:55;;;;;;;19.02;14.10;;;12.70;32.50;;;;;;6121957;23;20421;-80
2022/03/29 01:30:22;;;;;;;19.20;14.45;;;12.70;32.50;;;;;;6121370;23;20391;-79
2022/03/29 01:32:51;;;;;;;20.02;14.85;;;12.70;32.30;;;;;;6122084;23;20423;-80
2022/03/29 01:35:20;;;;;;;18.95;14.50;;;12.70;32.50;;;;;;6121454;23;20423;-79
2022/03/29 01:37:48;;;;;;;18.95;14.98;;;12.70;32.30;;;;;;6122428;23;20677;-81
2022/03/29 01:40:19;;;;;;;19.25;14.48;;;12.60;32.40;;;;;;6120456;23;20370;-78
2022/03/29 01:42:49;;;;;;;16.75;13.85;;;12.60;32.30;;;;;;6121874;23;20388;-79
2022/03/29 01:45:16;;;;;;;19.08;14.82;;;12.80;32.00;;;;;;6121478;23;20384;-78
2022/03/29 01:47:44;;;;;;;16.92;14.13;;;12.80;32.10;;;;;;6121919;23;20414;-80
2022/03/29 01:50:12;;;;;;;18.13;13.93;;;12.80;31.80;;;;;;6145731;23;20760;-80
2022/03/29 01:52:45;;;;;;;21.05;14.43;;;12.80;31.90;;;;;;6122186;23;20847;-79
2022/03/29 01:55:14;;;;;;;18.35;13.88;;;12.70;32.10;;;;;;6120848;23;20403;-80
2022/03/29 01:57:41;;;;;;;18.17;14.25;;;12.70;32.10;;;;;;6123522;23;20748;-80
2022/03/29 02:02:56;;;;;;;17.83;14.13;;;12.70;32.30;;;;;;6122887;23;20367;-80
2022/03/29 02:05:24;;;;;;;18.75;14.50;;;12.70;32.10;;;;;;6123761;23;20439;-80
2022/03/29 02:07:51;;;;;;;17.95;14.35;;;12.70;33.10;;;;;;6121997;23;22538;-80
2022/03/29 02:10:20;;;;;;;18.53;14.00;;;12.60;32.40;;;;;;6122474;23;20384;-80
2022/03/29 02:12:48;;;;;;;17.65;13.15;;;12.60;32.20;;;;;;6120992;23;20447;-80
2022/03/29 02:15:16;;;;;;;16.67;13.00;;;12.70;33.10;;;;;;6121849;23;20380;-79
2022/03/29 02:17:44;;;;;;;17.90;14.10;;;12.60;32.40;;;;;;6121092;23;20407;-79
2022/03/29 02:20:13;;;;;;;16.93;13.70;;;12.50;32.70;;;;;;6122055;23;20376;-79
2022/03/29 02:22:41;;;;;;;18.42;13.57;;;12.50;32.70;;;;;;6119932;23;20380;-80
2022/03/29 02:25:10;;;;;;;18.35;13.85;;;12.50;33.00;;;;;;6122458;23;20374;-80
2022/03/29 02:27:38;;;;;;;17.65;14.02;;;12.50;32.50;;;;;;6121486;23;20713;-79
2022/03/29 02:30:08;;;;;;;17.30;13.87;;;12.50;32.50;;;;;;6122075;23;20372;-80
2022/03/29 02:32:35;;;;;;;17.23;13.93;;;12.30;32.90;;;;;;6121086;23;20431;-80
2022/03/29 02:35:02;;;;;;;21.40;13.93;;;12.30;33.10;;;;;;6121856;23;20709;-79
2022/03/29 02:37:31;;;;;;;16.57;13.87;;;12.20;33.50;;;;;;6122771;23;20463;-78
2022/03/29 02:39:58;;;;;;;19.90;14.52;;;12.30;32.90;;;;;;6121451;23;20827;-80
2022/03/29 02:42:25;;;;;;;18.95;14.75;;;12.30;33.00;;;;;;6122106;23;20376;-80
2022/03/29 02:44:52;;;;;;;17.48;13.52;;;12.30;32.90;;;;;;6120809;23;20438;-80
2022/03/29 02:47:19;;;;;;;17.17;13.70;;;12.20;33.20;;;;;;6121749;23;20411;-80
2022/03/29 02:49:46;;;;;;;17.88;14.00;;;12.10;33.60;;;;;;6121010;23;20757;-80
2022/03/29 02:52:13;;;;;;;17.75;14.10;;;12.20;33.10;;;;;;6122333;23;20372;-81
2022/03/29 02:54:41;;;;;;;18.05;13.40;;;12.20;32.90;;;;;;6120025;23;20954;-78
2022/03/29 02:57:10;;;;;;;19.92;13.82;;;12.20;33.40;;;;;;6122134;23;20383;-80
2022/03/29 02:59:37;;;;;;;20.02;14.80;;;12.10;34.10;;;;;;6120662;23;20456;-80
2022/03/29 03:02:04;;;;;;;18.60;15.38;;;12.10;33.50;;;;;;6121153;23;20399;-80
2022/03/29 03:04:32;;;;;;;17.77;13.43;;;12.20;33.20;;;;;;6121719;23;20398;-79
2022/03/29 03:07:00;;;;;;;18.98;14.20;;;12.10;33.40;;;;;;6145341;23;20368;-78
2022/03/29 03:09:27;;;;;;;19.58;14.35;;;12.10;33.90;;;;;;6121313;23;20398;-80
2022/03/29 03:11:54;;;;;;;17.30;14.35;;;12.00;33.60;;;;;;6121313;23;20443;-78
2022/03/29 03:14:21;;;;;;;18.85;13.98;;;12.00;33.70;;;;;;6121168;23;20384;-80
2022/03/29 03:16:48;;;;;;;17.70;14.07;;;12.00;34.20;;;;;;6120740;23;20388;-80
2022/03/29 03:19:34;;;;;;;18.20;14.15;;;11.90;33.70;;;;;;6121346;23;20972;-79
2022/03/29 03:22:02;;;;;;;19.95;15.32;;;12.10;33.40;;;;;;6120957;23;20452;-79
2022/03/29 03:24:29;;;;;;;19.40;13.75;;;12.10;33.20;;;;;;6121090;23;20384;-80
2022/03/29 03:26:56;;;;;;;17.92;14.00;;;12.20;32.90;;;;;;6120880;23;20977;-80
2022/03/29 03:29:23;;;;;;;17.98;14.02;;;12.30;32.90;;;;;;6121326;23;20844;-79
2022/03/29 03:31:50;;;;;;;18.80;14.73;;;12.30;33.30;;;;;;6120311;23;20379;-80
2022/03/29 03:34:17;;;;;;;19.10;14.48;;;12.10;33.70;;;;;;6123392;23;20391;-80
2022/03/29 03:36:44;;;;;;;20.60;15.85;;;12.00;34.10;;;;;;6121832;23;20855;-80
2022/03/29 03:39:14;;;;;;;18.63;15.55;;;11.80;34.50;;;;;;6122369;23;20478;-81
2022/03/29 03:41:41;;;;;;;19.23;15.82;;;11.70;35.20;;;;;;6119851;23;20415;-80
2022/03/29 03:44:09;;;;;;;20.20;14.93;;;11.60;35.70;;;;;;6121646;23;20380;-81
2022/03/29 03:46:36;;;;;;;17.58;13.88;;;11.40;36.00;;;;;;6120453;23;20914;-80
2022/03/29 03:49:03;;;;;;;19.58;14.70;;;11.40;35.40;;;;;;6121778;23;20379;-79
2022/03/29 03:51:30;;;;;;;18.13;13.77;;;11.40;35.40;;;;;;6121408;23;20380;-81
2022/03/29 03:53:57;;;;;;;18.35;14.23;;;11.50;35.20;;;;;;6121165;23;20375;-82
2022/03/29 03:56:24;;;;;;;19.27;13.77;;;11.50;35.00;;;;;;6120136;23;20419;-78
2022/03/29 03:58:51;;;;;;;19.30;14.40;;;11.50;35.00;;;;;;6119175;23;20886;-80
2022/03/29 04:01:18;;;;;;;18.37;14.20;;;11.60;34.90;;;;;;6121506;23;20384;-79
2022/03/29 04:03:45;;;;;;;18.85;13.43;;;11.60;34.90;;;;;;6120220;23;20403;-80
2022/03/29 04:06:12;;;;;;;17.00;13.63;;;11.70;34.60;;;;;;6121745;23;20383;-79
2022/03/29 04:08:39;;;;;;;19.20;14.40;;;11.70;34.90;;;;;;6121507;23;20444;-81
2022/03/29 04:11:08;;;;;;;15.50;12.35;;;11.70;35.10;;;;;;6119829;23;20371;-81
2022/03/29 04:13:36;;;;;;;16.80;13.88;;;11.60;35.40;;;;;;6121501;23;20411;-80
2022/03/29 04:16:03;;;;;;;18.77;14.13;;;11.60;35.40;;;;;;6120225;23;20427;-81
2022/03/29 04:18:30;;;;;;;20.00;13.88;;;11.50;36.00;;;;;;6123020;23;20438;-79
2022/03/29 04:20:58;;;;;;;19.15;14.43;;;11.20;37.30;;;;;;6120257;23;20768;-80
2022/03/29 04:23:25;;;;;;;19.75;14.88;;;11.10;37.70;;;;;;6122804;23;20501;-79
2022/03/29 04:25:51;;;;;;;20.38;14.82;;;10.90;38.30;;;;;;6121247;23;20397;-78
2022/03/29 04:28:19;;;;;;;21.45;15.77;;;10.80;38.90;;;;;;6121904;23;20371;-81
2022/03/29 04:30:46;;;;;;;22.17;15.75;;;10.40;40.30;;;;;;6122415;23;20422;-79
2022/03/29 04:33:14;;;;;;;24.37;16.67;;;10.10;41.60;;;;;;6123199;23;20943;-81
2022/03/29 04:35:41;;;;;;;19.65;15.45;;;10.00;42.00;;;;;;6122006;23;20439;-80
2022/03/29 04:38:08;;;;;;;22.45;16.33;;;10.00;41.80;;;;;;6121610;23;20926;-81
2022/03/29 04:40:35;;;;;;;21.13;15.68;;;9.90;42.30;;;;;;6121803;23;20446;-79
2022/03/29 04:43:02;;;;;;;19.27;15.13;;;9.90;42.70;;;;;;6121957;23;20388;-81
2022/03/29 04:45:29;;;;;;;22.10;16.42;;;9.80;42.60;;;;;;6121690;23;20898;-78
2022/03/29 04:47:56;;;;;;;22.55;17.55;;;9.80;42.60;;;;;;6119864;23;20874;-80
2022/03/29 04:50:22;;;;;;;24.50;17.98;;;9.70;43.10;;;;;;6123740;23;20852;-80
2022/03/29 04:52:49;;;;;;;23.37;17.13;;;9.70;43.30;;;;;;6122319;23;20441;-78
2022/03/29 04:55:18;;;;;;;36.58;18.05;;;9.60;43.80;;;;;;6120312;23;20383;-80
2022/03/29 04:57:48;;;;;;;21.08;17.02;;;9.50;43.90;;;;;;6121979;23;20392;-79
2022/03/29 05:00:22;;;;;;;22.40;16.90;;;9.50;43.90;;;;;;6124287;23;20454;-80
2022/03/29 05:02:49;;;;;;;21.42;16.67;;;9.40;43.40;;;;;;6121429;23;20388;-79
2022/03/29 05:05:17;;;;;;;24.17;17.00;;;9.20;44.20;;;;;;6122383;23;20511;-79
2022/03/29 05:07:44;;;;;;;24.13;17.70;;;9.00;45.00;;;;;;6122743;23;20383;-79
2022/03/29 05:10:12;;;;;;;22.35;17.27;;;8.70;46.70;;;;;;6123313;23;21274;-80
2022/03/29 05:12:43;;;;;;;22.63;16.95;;;8.40;47.40;;;;;;6124310;23;20752;-81
2022/03/29 05:15:12;;;;;;;21.02;16.48;;;8.40;47.20;;;;;;6122149;23;20883;-80
2022/03/29 05:17:42;;;;;;;21.80;16.27;;;8.50;46.80;;;;;;6121901;23;20383;-78
2022/03/29 05:20:11;;;;;;;21.27;17.10;;;8.50;47.10;;;;;;6121872;23;20371;-79
2022/03/29 05:22:45;;;;;;;23.48;17.05;;;8.40;47.60;;;;;;6122531;23;20776;-81
2022/03/29 05:25:14;;;;;;;22.10;17.08;;;8.40;47.90;;;;;;6123071;23;20368;-81
2022/03/29 05:27:42;;;;;;;24.15;17.77;;;8.00;49.10;;;;;;6123707;23;20759;-79
2022/03/29 05:30:10;;;;;;;25.85;17.27;;;8.00;49.50;;;;;;6121340;23;20398;-79
2022/03/29 05:32:38;;;;;;;27.63;18.90;;;7.90;49.50;;;;;;6123544;23;20434;-78
2022/03/29 05:35:07;;;;;;;26.85;19.52;;;8.00;49.80;;;;;;6123174;23;20412;-81
2022/03/29 05:37:36;;;;;;;26.48;18.95;;;8.00;49.00;;;;;;6122219;23;20407;-80
2022/03/29 05:40:04;;;;;;;27.53;18.63;;;8.10;48.70;;;;;;6121257;23;20493;-81
2022/03/29 05:42:31;;;;;;;25.85;19.40;;;8.10;48.60;;;;;;6121769;23;20392;-78
2022/03/29 05:44:58;;;;;;;24.57;19.33;;;8.20;49.20;;;;;;6120992;23;20380;-78
2022/03/29 05:50:10;;;;;;;24.77;18.42;;;8.00;49.80;;;;;;6123430;23;20760;-80
2022/03/29 05:52:37;;;;;;;27.08;18.50;;;7.90;50.00;;;;;;6121761;23;20384;-79
2022/03/29 05:55:04;;;;;;;24.07;18.03;;;7.80;50.50;;;;;;6121461;23;20399;-78
2022/03/29 05:57:31;;;;;;;25.70;18.20;;;7.70;51.50;;;;;;6123593;23;20784;-80
2022/03/29 05:59:58;;;;;;;23.80;18.15;;;7.60;52.30;;;;;;6122638;23;20863;-80
2022/03/29 06:02:25;;;;;;;32.83;19.13;;;7.60;51.90;;;;;;6123580;23;20376;-81
2022/03/29 06:04:52;;;;;;;28.60;18.83;;;7.60;51.40;;;;;;6121527;23;20410;-79
2022/03/29 06:07:20;;;;;;;28.23;18.15;;;7.70;51.70;;;;;;6122247;23;20871;-80
2022/03/29 06:09:46;;;;;;;29.95;18.77;;;7.60;52.60;;;;;;6123037;23;20442;-80
2022/03/29 06:12:21;;;;;;;24.45;17.67;;;7.70;52.20;;;;;;6121007;23;20375;-80
2022/03/29 06:14:48;;;;;;;23.10;17.45;;;7.70;52.10;;;;;;6121767;23;20380;-78
2022/03/29 06:17:16;;;;;;;22.23;16.70;;;7.70;52.30;;;;;;6122696;23;20454;-78
2022/03/29 06:19:44;;;;;;;21.75;16.90;;;7.80;51.80;;;;;;6146814;23;20387;-80
2022/03/29 06:22:12;;;;;;;20.30;16.33;;;7.80;52.50;;;;;;6121988;23;20372;-79
2022/03/29 06:24:40;;;;;;;23.00;16.20;;;7.90;52.10;;;;;;6121955;23;20752;-80
2022/03/29 06:27:07;;;;;;;23.60;17.38;;;8.00;51.50;;;;;;6121427;23;20387;-80
2022/03/29 06:29:37;;;;;;;23.60;16.52;;;8.10;51.70;;;;;;6122422;23;20431;-79
2022/03/29 06:32:05;;;;;;;25.08;16.50;;;8.20;50.90;;;;;;6120995;23;20855;-78
2022/03/29 06:34:32;;;;;;;23.00;17.42;;;8.30;51.40;;;;;;6122352;23;20379;-79
2022/03/29 06:36:59;;;;;;;23.55;17.40;;;8.50;51.20;;;;;;6120895;23;20446;-80
2022/03/29 06:39:27;;;;;;;24.33;16.73;;;8.70;50.00;;;;;;6123092;23;20375;-79
2022/03/29 06:41:55;;;;;;;22.02;15.98;;;8.90;48.20;;;;;;6121168;23;20380;-79
2022/03/29 06:44:23;;;;;;;27.17;16.35;;;9.10;47.40;;;;;;6122220;23;20375;-78
2022/03/29 06:46:50;;;;;;;22.23;15.75;;;9.30;46.30;;;;;;6122284;23;20728;-80
2022/03/29 06:49:17;;;;;;;22.27;15.68;;;9.50;44.20;;;;;;6122582;23;20379;-80
2022/03/29 06:51:47;;;;;;;22.88;15.82;;;9.70;43.60;;;;;;6121568;23;20872;-79
2022/03/29 06:54:15;;;;;;;20.33;16.07;;;10.00;43.40;;;;;;6121365;23;20417;-81
2022/03/29 06:56:42;;;;;;;19.38;15.63;;;10.10;42.70;;;;;;6120910;23;20396;-78
2022/03/29 06:59:09;;;;;;;23.30;16.13;;;10.30;43.00;;;;;;6121057;23;20744;-79
2022/03/29 07:01:36;;;;;;;24.02;16.52;;;10.50;42.80;;;;;;6121643;23;20379;-80
2022/03/29 07:04:07;;;;;;;23.40;15.80;;;10.70;42.70;;;;;;6121183;23;20375;-79
2022/03/29 07:06:34;;;;;;;23.00;16.42;;;10.80;41.70;;;;;;6121756;23;20383;-81
2022/03/29 07:12:02;;;;;;;22.57;16.47;;;11.30;41.30;;;;;;6122303;23;20458;-81
2022/03/29 07:14:29;;;;;;;22.35;16.45;;;11.40;40.20;;;;;;6123323;23;20419;-78
2022/03/29 07:16:57;;;;;;;21.65;15.90;;;11.50;40.40;;;;;;6122222;23;20797;-81
2022/03/29 07:19:24;;;;;;;21.88;17.35;;;11.60;41.60;;;;;;6120835;23;20431;-81
2022/03/29 07:21:51;;;;;;;19.98;16.08;;;11.70;41.30;;;;;;6121202;23;20379;-81
2022/03/29 07:24:18;;;;;;;21.77;17.25;;;11.70;40.90;;;;;;6120611;23;20733;-81
2022/03/29 07:26:45;;;;;;;29.42;19.73;;;11.80;41.00;;;;;;6121745;23;20390;-80
2022/03/29 07:29:17;;;;;;;30.00;21.08;;;11.90;42.60;;;;;;6121092;23;20394;-81
2022/03/29 07:31:45;;;;;;;27.50;21.03;;;11.90;42.80;;;;;;6121704;23;20464;-80
2022/03/29 07:34:12;;;;;;;26.98;20.77;;;12.00;43.00;;;;;;6120597;23;20443;-81
2022/03/29 07:36:41;;;;;;;28.98;20.95;;;12.00;41.10;;;;;;6120759;23;20384;-81
2022/03/29 07:39:08;;;;;;;28.80;20.60;;;12.10;40.90;;;;;;6144438;23;20372;-78
2022/03/29 07:41:35;;;;;;;28.90;21.23;;;12.20;40.90;;;;;;6122522;23;20434;-81
2022/03/29 07:44:02;;;;;;;30.48;21.45;;;12.40;41.20;;;;;;6122127;23;20542;-79
2022/03/29 07:46:29;;;;;;;27.63;20.47;;;12.50;39.70;;;;;;6121564;23;20436;-79
2022/03/29 07:48:56;;;;;;;25.10;19.17;;;12.70;39.30;;;;;;6122239;23;20386;-78
2022/03/29 07:51:43;;;;;;;28.30;20.17;;;12.90;38.50;;;;;;6121248;23;20372;-78
2022/03/29 07:54:10;;;;;;;28.00;20.02;;;13.00;41.50;;;;;;6120470;23;20375;-79
2022/03/29 07:56:37;;;;;;;26.73;19.50;;;13.00;43.00;;;;;;6122474;23;20435;-81
2022/03/29 07:59:04;;;;;;;25.45;19.85;;;13.00;42.90;;;;;;6108821;23;20903;-78
2022/03/29 08:01:31;;;;;;;27.48;19.75;;;13.10;42.60;;;;;;6121670;23;20454;-81
2022/03/29 08:03:58;;;;;;;25.50;20.65;;;13.20;42.30;;;;;;6121260;23;20430;-79
2022/03/29 08:06:25;;;;;;;26.07;20.30;;;13.40;41.40;;;;;;6120984;23;20936;-81
2022/03/29 08:08:53;;;;;;;25.30;19.10;;;13.60;40.60;;;;;;6122614;23;20384;-79
2022/03/29 08:11:22;;;;;;;28.20;19.88;;;13.70;39.10;;;;;;6120508;23;20368;-82
2022/03/29 08:13:49;;;;;;;31.55;21.20;;;13.90;38.90;;;;;;6121678;23;20382;-80
2022/03/29 08:16:17;;;;;;;28.80;22.03;;;14.10;38.80;;;;;;6119519;23;20384;-80
2022/03/29 08:18:44;;;;;;;31.10;22.88;;;14.10;38.10;;;;;;6122830;23;20390;-82
2022/03/29 08:23:56;;;;;;;37.15;25.88;;;14.20;38.80;;;;;;6122407;23;20434;-80
2022/03/29 08:26:23;;;;;;;37.90;27.25;;;14.40;39.40;;;;;;6119924;23;20787;-80
2022/03/29 08:28:50;;;;;;;38.10;28.23;;;14.60;38.00;;;;;;6121300;23;20379;-81
2022/03/29 08:31:18;;;;;;;36.85;27.63;;;14.70;37.20;;;;;;6119683;23;20379;-79
2022/03/29 08:33:45;;;;;;;34.88;26.85;;;14.90;36.50;;;;;;6123513;23;20388;-79
2022/03/29 08:36:12;;;;;;;38.75;26.73;;;15.10;36.30;;;;;;6122076;23;20384;-80
2022/03/29 08:38:39;;;;;;;34.95;27.08;;;15.10;37.20;;;;;;6122478;23;20387;-80
2022/03/29 08:41:06;;;;;;;35.65;25.38;;;15.30;36.50;;;;;;6122063;23;20384;-80
2022/03/29 08:43:33;;;;;;;38.25;26.23;;;15.40;36.80;;;;;;6123218;23;20390;-79
2022/03/29 08:46:00;;;;;;;37.75;27.08;;;15.40;35.70;;;;;;6124426;23;20387;-80
2022/03/29 08:48:29;;;;;;;40.50;27.38;;;15.40;36.00;;;;;;6122597;23;20371;-80
2022/03/29 08:50:59;;;;;;;42.60;28.00;;;15.50;36.20;;;;;;6123344;23;20383;-81
2022/03/29 08:53:48;;;;;;;40.10;27.40;;;15.70;36.60;;;;;;6123571;23;20819;-80
2022/03/29 08:56:16;;;;;;;42.20;31.65;;;15.90;35.50;;;;;;6121567;23;20459;-78
2022/03/29 08:58:43;;;;;;;41.38;30.55;;;15.90;34.90;;;;;;6120812;23;20387;-80
2022/03/29 09:01:10;;;;;;;45.08;30.88;;;15.90;34.90;;;;;;6122020;23;20407;-79
2022/03/29 09:03:37;;;;;;;43.00;31.80;;;16.20;35.00;;;;;;6121289;23;20936;-79
2022/03/29 09:06:09;;;;;;;44.30;32.70;;;16.30;34.50;;;;;;6122092;23;20387;-81
2022/03/29 09:08:47;;;;;;;40.05;30.50;;;16.40;35.50;;;;;;6123120;23;20383;-81
2022/03/29 09:11:14;;;;;;;45.95;32.50;;;16.40;34.70;;;;;;6121160;23;20390;-80
2022/03/29 09:13:42;;;;;;;41.28;31.75;;;16.30;34.10;;;;;;6121769;23;20732;-80
2022/03/29 09:16:30;;;;;;;42.35;31.27;;;16.10;35.10;;;;;;6121434;23;20383;-80
2022/03/29 09:18:58;;;;;;;43.92;31.45;;;16.00;35.30;;;;;;6121212;23;20371;-79
2022/03/29 09:21:25;;;;;;;40.90;31.05;;;16.10;35.40;;;;;;6121411;23;20380;-80
2022/03/29 09:24:21;;;;;;;46.13;32.38;;;16.30;35.10;;;;;;6121098;23;20379;-80
2022/03/29 09:26:52;;;;;;;41.80;32.08;;;16.50;35.90;;;;;;6102890;23;20380;-79
2022/03/29 09:29:21;;;;;;;42.38;31.73;;;16.60;35.60;;;;;;6121719;23;20852;-80
2022/03/29 09:32:14;;;;;;;40.72;29.73;;;16.80;35.80;;;;;;6120654;23;20394;-81
2022/03/29 09:34:41;;;;;;;43.38;30.98;;;17.10;36.30;;;;;;6122393;23;20712;-80
2022/03/29 09:37:08;;;;;;;46.38;31.85;;;17.20;36.10;;;;;;6121042;23;20450;-80
2022/03/29 09:39:40;;;;;;;44.83;32.15;;;17.10;35.80;;;;;;6120911;23;20383;-80
2022/03/29 09:42:15;;;;;;;43.20;28.95;;;17.30;36.10;;;;;;6122812;23;20025;-81
2022/03/29 09:44:50;;;;;;;;;;;17.20;36.30;;;;;;6122690;23;20022;-80
2022/03/29 09:47:21;;;;;;;41.10;27.17;;;17.30;36.40;;;;;;6123227;23;19920;-81
2022/03/29 09:49:58;;;;;;;41.03;28.23;;;17.30;36.30;;;;;;6122006;23;20022;-79
2022/03/29 09:52:26;;;;;;;44.80;30.88;;;17.40;36.70;;;;;;6121192;23;20386;-80
2022/03/29 09:55:21;;;;;;;44.05;28.95;;;17.50;36.70;;;;;;6123567;23;20458;-81
2022/03/29 09:57:54;;;;;;;41.65;28.65;;;17.30;35.70;;;;;;6122019;23;20029;-80
2022/03/29 10:00:30;;;;;;;46.20;30.08;;;17.40;36.00;;;;;;6123033;23;20022;-80
2022/03/29 10:02:59;;;;;;;42.65;29.40;;;17.20;36.70;;;;;;6123510;23;20438;-81
2022/03/29 10:05:26;;;;;;;43.25;27.50;;;17.10;36.80;;;;;;6122830;23;20465;-79
2022/03/29 10:09:25;;;;;;;46.30;28.60;;;17.30;37.60;;;;;;6122629;23;20037;-81
2022/03/29 10:10:46;;;;;;;43.72;28.48;;;17.50;36.30;;;;;;6123680;23;20470;-81
2022/03/29 10:13:16;;;;;;;43.13;28.42;;;17.60;36.80;;;;;;6125086;23;20033;-81
2022/03/29 10:15:45;;;;;;;;;;;17.80;36.50;;;;;;6122463;23;20030;-80
2022/03/29 10:18:14;;;;;;;;;;;17.80;35.80;;;;;;6123691;23;19921;-81
2022/03/29 10:20:41;;;;;;;;;;;17.80;35.70;;;;;;6122802;23;19924;-81
2022/03/29 10:23:08;;;;;;;;;;;17.60;35.80;;;;;;6123478;23;19944;-81
2022/03/29 10:25:36;;;;;;;;;;;17.70;35.60;;;;;;6123368;23;19916;-79
2022/03/29 10:28:05;;;;;;;;;;;17.80;35.30;;;;;;6122554;23;19983;-79
2022/03/29 10:30:35;;;;;;;;;;;17.90;36.00;;;;;;6123101;23;19917;-80
2022/03/29 10:33:19;;;;;;;;;;;18.20;35.90;;;;;;6122558;23;19928;-80
2022/03/29 10:36:00;;;;;;;;;;;17.90;33.50;;;;;;6124065;23;19964;-80
2022/03/29 10:38:43;;;;;;;;;;;17.90;36.00;;;;;;6123041;23;19965;-80
2022/03/29 10:41:28;;;;;;;;;;;18.00;35.20;;;;;;6122613;23;19980;-80
2022/03/29 10:43:54;;;;;;;;;;;18.20;34.40;;;;;;6122728;23;19916;-80
2022/03/29 10:46:23;;;;;;;;;;;18.30;33.70;;;;;;6122216;23;20305;-80
2022/03/29 10:49:09;;;;;;;;;;;18.50;33.90;;;;;;6122518;23;19921;-79
2022/03/29 10:51:36;;;;;;;;;;;18.60;33.60;;;;;;6122818;23;19944;-81
2022/03/29 10:54:21;;;;;;;;;;;18.40;32.60;;;;;;6122470;23;20307;-79
2022/03/29 10:57:01;;;;;;;;;;;18.40;32.80;;;;;;6123329;23;19928;-80
2022/03/29 10:59:29;;;;;;;;;;;18.60;32.10;;;;;;6122933;23;19999;-80
2022/03/29 11:02:08;;;;;;;;;;;18.20;31.90;;;;;;6122537;23;20254;-81
2022/03/29 11:04:35;;;;;;;;;;;18.30;32.70;;;;;;6122771;23;19948;-80
2022/03/29 11:07:04;;;;;;;;;;;18.20;32.80;;;;;;6121552;23;20309;-80
2022/03/29 11:09:32;;;;;;;;;;;18.20;32.20;;;;;;6122454;23;19927;-80
2022/03/29 11:11:59;;;;;;;;;;;18.20;32.20;;;;;;6121761;23;19917;-79
2022/03/29 11:14:30;;;;;;;;;;;18.40;31.50;;;;;;6122174;23;19972;-79
2022/03/29 11:17:06;;;;;;;;;;;18.10;31.10;;;;;;6121516;23;20227;-79
2022/03/29 11:19:44;;;;;;;;;;;17.80;31.50;;;;;;6124153;23;19924;-81
2022/03/29 11:22:29;;;;;;;;;;;18.10;32.00;;;;;;6123274;23;20226;-81
2022/03/29 11:24:59;;;;;;;;;;;18.10;31.70;;;;;;6121601;23;19964;-81
2022/03/29 11:27:27;;;;;;;;;;;18.40;31.20;;;;;;6122340;23;19917;-80
2022/03/29 11:29:54;;;;;;;;;;;18.50;31.20;;;;;;6122387;23;19921;-80
2022/03/29 11:32:21;;;;;;;;;;;18.80;31.30;;;;;;6122736;23;19916;-79
2022/03/29 11:34:52;;;;;;;;;;;19.00;30.80;;;;;;6122019;23;19917;-80
2022/03/29 11:37:26;;;;;;;;;;;18.90;30.30;;;;;;6122732;23;19941;-80
2022/03/29 11:39:53;;;;;;;;;;;18.90;30.40;;;;;;6121716;23;20341;-79
2022/03/29 11:42:20;;;;;;;;;;;19.20;29.90;;;;;;6122116;23;19917;-80
2022/03/29 11:44:47;;;;;;;;;;;19.30;30.00;;;;;;6122076;23;20353;-79
2022/03/29 11:47:14;;;;;;;;;;;19.40;28.90;;;;;;6120747;23;19928;-81
2022/03/29 11:49:42;;;;;;;;;;;18.90;29.10;;;;;;6122626;23;20346;-80
2022/03/29 11:52:11;;;;;;;;;;;18.70;29.30;;;;;;6121884;23;19917;-81
2022/03/29 11:54:42;;;;;;;;;;;18.60;28.30;;;;;;6122848;23;19923;-79
2022/03/29 11:57:15;;;;;;;;;;;18.70;29.60;;;;;;6121966;23;19917;-79
2022/03/29 11:59:42;;;;;;;;;;;18.90;30.00;;;;;;6121877;23;19928;-81
2022/03/29 12:02:09;;;;;;;;;;;19.00;28.90;;;;;;6122036;23;19980;-81
2022/03/29 12:04:37;;;;;;;;;;;18.90;28.50;;;;;;6122567;23;19916;-81
2022/03/29 12:07:06;;;;;;;;;;;19.00;28.80;;;;;;6098430;23;19917;-81
2022/03/29 12:09:33;;;;;;;;;;;19.40;28.10;;;;;;6124731;23;20338;-79
2022/03/29 12:12:01;;;;;;;;;;;19.60;28.20;;;;;;6123340;23;19917;-81
2022/03/29 12:14:29;;;;;;;;;;;19.80;27.90;;;;;;6124765;23;19921;-79
2022/03/29 12:17:03;;;;;;;;;;;19.20;27.60;;;;;;6123878;23;19948;-79
2022/03/29 12:19:31;;;;;;;;;;;18.80;29.80;;;;;;6124207;23;19925;-81
2022/03/29 12:22:08;;;;;;;;;;;18.90;29.30;;;;;;6123384;23;19921;-81
2022/03/29 12:24:36;;;;;;;27.48;20.15;;;18.70;28.70;;;;;;6124066;23;20398;-79
2022/03/29 12:27:06;;;;;;;30.92;22.10;;;18.80;29.30;;;;;;6123077;23;20033;-80
2022/03/29 12:29:39;;;;;;;28.13;20.75;;;18.60;29.40;;;;;;6123690;23;20029;-79
2022/03/29 12:32:06;;;;;;;32.57;21.73;;;18.90;28.20;;;;;;6122415;23;20096;-79
2022/03/29 12:34:34;;;;;;;27.90;19.67;;;18.90;29.20;;;;;;6123502;23;20089;-79
2022/03/29 12:37:02;;;;;;;;;;;19.10;28.70;;;;;;6123404;23;20033;-80
2022/03/29 12:39:37;;;;;;;;;;;19.30;28.50;;;;;;6123584;23;19916;-79
2022/03/29 12:42:08;;;;;;;;;;;19.40;28.30;;;;;;6123163;23;19917;-82
2022/03/29 12:44:36;;;;;;;;;;;19.20;28.70;;;;;;6125988;23;20401;-82
2022/03/29 12:47:06;;;;;;;;;;;18.90;28.60;;;;;;6123120;23;19968;-81
2022/03/29 12:49:34;;;;;;;;;;;19.10;28.70;;;;;;6125777;23;19940;-79
2022/03/29 12:52:04;;;;;;;;;;;18.80;29.10;;;;;;6123126;23;19948;-79
2022/03/29 12:54:45;;;;;;;;;;;19.00;28.70;;;;;;6124038;23;19924;-79
2022/03/29 12:57:13;;;;;;;;;;;19.00;28.50;;;;;;6122949;23;19920;-79
2022/03/29 12:59:41;;;;;;;;;;;18.90;28.60;;;;;;6124108;23;19917;-79
2022/03/29 13:02:11;;;;;;;;;;;19.20;29.50;;;;;;6124875;23;19987;-79
2022/03/29 13:04:39;;;;;;;;;;;19.10;29.40;;;;;;6124196;23;19923;-82
2022/03/29 13:07:07;;;;;;;;;;;19.40;29.00;;;;;;6121430;23;20055;-82
2022/03/29 13:09:35;;;;;;;;;;;19.70;29.10;;;;;;6125680;23;19916;-80
2022/03/29 13:12:21;;;;;;;;;;;19.90;28.00;;;;;;6123936;23;20444;-79